Time;durP1;ratioP1;P1;durP2;ratioP2;P2;SDS_P1;SDS_P2;PMS_P1;PMS_P2;Temp;Humidity;BMP_temperature;BMP_pressure;BME280_temperature;BME280_humidity;BME280_pressure;Samples;Min_cycle;Max_cycle;Signal;HPM_P1;HPM_P2
2021/05/10 00:00:57;;;;;;;;;;;16.50;99.90;;;;;;5072057;28;20272;-77
2021/05/10 00:03:22;;;;;;;;;;;16.60;99.90;;;;;;5071864;28;19909;-75
2021/05/10 00:05:48;;;;;;;;;;;16.80;99.90;;;;;;5072033;28;19904;-76
2021/05/10 00:08:14;;;;;;;;;;;16.80;99.90;;;;;;5071735;28;20386;-77
2021/05/10 00:10:40;;;;;;;;;;;16.70;99.90;;;;;;5071783;28;19905;-77
2021/05/10 00:13:07;;;;;;;;;;;16.70;99.90;;;;;;5072247;28;20382;-76
2021/05/10 00:15:33;;;;;;;;;;;16.70;99.90;;;;;;5072115;28;19961;-79
2021/05/10 00:18:03;;;;;;;;;;;16.80;99.90;;;;;;5072202;28;19995;-80
2021/05/10 00:20:30;;;;;;;;;;;16.70;99.90;;;;;;5072093;28;19911;-79
2021/05/10 00:22:55;;;;;;;;;;;16.70;99.90;;;;;;5072241;28;19991;-78
2021/05/10 00:25:21;;;;;;;;;;;16.80;99.90;;;;;;5072176;28;19958;-80
2021/05/10 00:27:46;;;;;;;;;;;16.80;99.90;;;;;;5072127;28;19936;-79
2021/05/10 00:30:12;;;;;;;;;;;16.80;99.90;;;;;;5071732;28;19959;-78
2021/05/10 00:32:37;;;;;;;;;;;16.90;99.90;;;;;;5072599;28;19904;-77
2021/05/10 00:35:03;;;;;;;;;;;16.90;99.90;;;;;;5073811;28;20002;-79
2021/05/10 00:37:28;;;;;;;;;;;17.00;99.90;;;;;;5072460;28;19904;-77
2021/05/10 00:39:54;;;;;;;;;;;17.00;99.90;;;;;;5071869;28;19909;-78
2021/05/10 00:42:19;;;;;;;;;;;17.00;99.90;;;;;;5072325;28;19904;-78
2021/05/10 00:44:45;;;;;;;;;;;16.90;99.90;;;;;;5072252;28;19904;-77
2021/05/10 00:47:10;;;;;;;;;;;17.10;99.90;;;;;;5072422;28;19904;-78
2021/05/10 00:49:36;;;;;;;;;;;17.30;99.90;;;;;;5073137;28;19904;-80
2021/05/10 00:52:01;;;;;;;;;;;17.40;99.90;;;;;;5072483;28;19904;-81
2021/05/10 00:54:27;;;;;;;;;;;17.40;99.90;;;;;;5072663;28;20390;-79
2021/05/10 00:56:52;;;;;;;;;;;17.40;99.90;;;;;;5072443;28;19904;-77
2021/05/10 00:59:18;;;;;;;;;;;17.50;99.90;;;;;;5072331;28;19911;-78
2021/05/10 01:01:43;;;;;;;;;;;17.30;99.90;;;;;;5072353;28;20003;-81
2021/05/10 01:04:09;;;;;;;;;;;17.30;99.90;;;;;;5073602;28;19912;-78
2021/05/10 01:06:34;;;;;;;;;;;17.30;99.90;;;;;;5073699;28;20362;-78
2021/05/10 01:09:00;;;;;;;;;;;17.30;99.90;;;;;;5074603;28;19910;-78
2021/05/10 01:11:25;;;;;;;;;;;17.30;99.90;;;;;;5074111;28;19905;-77
2021/05/10 01:13:51;;;;;;;;;;;17.30;99.90;;;;;;5073959;28;20466;-78
2021/05/10 01:16:16;;;;;;;;;;;17.20;99.90;;;;;;5073641;28;19930;-79
2021/05/10 01:18:42;;;;;;;;;;;17.30;99.90;;;;;;5074934;28;20017;-78
2021/05/10 01:21:08;;;;;;;;;;;17.30;99.90;;;;;;5073732;28;19930;-78
2021/05/10 01:23:34;;;;;;;;;;;17.40;99.90;;;;;;5075149;28;19905;-78
2021/05/10 01:25:59;;;;;;;;;;;17.40;99.90;;;;;;5074264;28;19904;-79
2021/05/10 01:28:25;;;;;;;;;;;17.40;99.90;;;;;;5075133;28;19999;-76
2021/05/10 01:30:51;;;;;;;;;;;17.40;99.90;;;;;;5074156;28;19996;-79
2021/05/10 01:33:18;;;;;;;;;;;17.40;99.90;;;;;;5073731;28;20393;-78
2021/05/10 01:35:46;;;;;;;;;;;17.50;99.90;;;;;;5073648;28;19912;-78
2021/05/10 01:38:12;;;;;;;;;;;17.40;99.90;;;;;;5073779;28;19905;-78
2021/05/10 01:40:37;;;;;;;;;;;17.40;99.90;;;;;;5075199;28;19992;-78
2021/05/10 01:43:03;;;;;;;;;;;17.40;99.90;;;;;;5074820;28;19932;-79
2021/05/10 01:45:29;;;;;;;;;;;17.40;99.90;;;;;;5077092;28;19940;-76
2021/05/10 01:47:57;;;;;;;;;;;17.40;99.90;;;;;;5075649;28;19928;-77
2021/05/10 01:50:23;;;;;;;;;;;17.40;99.90;;;;;;5076533;28;19904;-76
2021/05/10 01:52:48;;;;;;;;;;;17.40;99.90;;;;;;5076872;28;19912;-76
2021/05/10 01:55:15;;;;;;;;;;;17.30;99.90;;;;;;5075544;28;20282;-76
2021/05/10 01:57:40;;;;;;;;;;;17.30;99.90;;;;;;5075668;28;19904;-76
2021/05/10 02:00:08;;;;;;;;;;;17.20;99.90;;;;;;5074920;28;20378;-76
2021/05/10 02:02:33;;;;;;;;;;;17.00;99.90;;;;;;5076613;28;19904;-77
2021/05/10 02:05:18;;;;;;;;;;;17.00;99.90;;;;;;5075110;28;19911;-76
2021/05/10 02:07:45;;;;;;;;;;;16.90;99.90;;;;;;5073963;28;19999;-76
2021/05/10 02:10:31;;;;;;;;;;;16.90;99.90;;;;;;5074765;28;19912;-75
2021/05/10 02:12:58;;;;;;;;;;;16.90;99.90;;;;;;5073704;28;20007;-76
2021/05/10 02:15:25;;;;;;;;;;;16.90;99.90;;;;;;5075601;28;20282;-75
2021/05/10 02:17:50;;;;;;;;;;;17.10;99.90;;;;;;5075305;28;19940;-75
2021/05/10 02:20:17;;;;;;;;;;;17.10;99.90;;;;;;5075602;28;19912;-75
2021/05/10 02:23:08;;;;;;;;;;;17.20;99.90;;;;;;5075634;28;19909;-77
2021/05/10 02:25:38;;;;;;;;;;;17.20;99.90;;;;;;5073100;28;20343;-77
2021/05/10 02:28:05;;;;;;;;;;;17.10;99.90;;;;;;5074143;28;19904;-76
2021/05/10 02:30:31;;;;;;;;;;;17.10;99.90;;;;;;5073462;28;19904;-76
2021/05/10 02:32:57;;;;;;;;;;;16.90;99.90;;;;;;5075906;28;20087;-77
2021/05/10 02:35:23;;;;;;;;;;;16.80;99.90;;;;;;5075055;28;19981;-77
2021/05/10 02:37:49;;;;;;;;;;;16.80;99.90;;;;;;5074923;28;19944;-75
2021/05/10 02:40:15;;;;;;;;;;;16.70;99.90;;;;;;5072971;28;19928;-76
2021/05/10 02:42:41;;;;;;;;;;;16.50;99.90;;;;;;5075508;28;19915;-75
2021/05/10 02:45:07;;;;;;;;;;;16.50;99.90;;;;;;5075421;28;19905;-76
2021/05/10 02:47:33;;;;;;;;;;;16.40;99.90;;;;;;5073437;28;19924;-75
2021/05/10 02:49:59;;;;;;;;;;;16.40;99.90;;;;;;5074573;28;19987;-77
2021/05/10 02:52:24;;;;;;;;;;;16.50;99.90;;;;;;5074518;28;20374;-76
2021/05/10 02:54:49;;;;;;;;;;;16.50;99.90;;;;;;5074598;28;19969;-76
2021/05/10 02:57:15;;;;;;;;;;;16.70;99.90;;;;;;5073721;28;19954;-77
2021/05/10 02:59:41;;;;;;;;;;;16.80;99.90;;;;;;5073315;28;20278;-75
2021/05/10 03:02:06;;;;;;;;;;;16.80;99.90;;;;;;5073630;28;19904;-77
2021/05/10 03:04:32;;;;;;;;;;;16.90;99.90;;;;;;5074955;28;19971;-77
2021/05/10 03:06:57;;;;;;;;;;;17.00;99.90;;;;;;5073160;28;19911;-77
2021/05/10 03:09:22;;;;;;;;;;;17.10;99.90;;;;;;5073086;28;19915;-77
2021/05/10 03:11:48;;;;;;;;;;;17.10;99.90;;;;;;5074661;28;19999;-77
2021/05/10 03:14:13;;;;;;;;;;;17.00;99.90;;;;;;5074887;28;19904;-78
2021/05/10 03:16:39;;;;;;;;;;;17.10;99.90;;;;;;5075074;28;20151;-78
2021/05/10 03:19:09;;;;;;;;;;;17.00;99.90;;;;;;5074595;28;20038;-78
2021/05/10 03:21:38;;;;;;;;;;;16.90;99.90;;;;;;5073130;28;19951;-78
2021/05/10 03:24:05;;;;;;;;;;;16.70;99.90;;;;;;5074237;28;19904;-77
2021/05/10 03:26:30;;;;;;;;;;;16.90;99.90;;;;;;5074588;28;20431;-76
2021/05/10 03:28:56;;;;;;;;;;;16.90;99.90;;;;;;5072736;28;19954;-78
2021/05/10 03:31:21;;;;;;;;;;;17.00;99.90;;;;;;5074308;28;19939;-80
2021/05/10 03:33:47;;;;;;;;;;;16.90;99.90;;;;;;5073950;28;19912;-78
2021/05/10 03:36:12;;;;;;;;;;;16.90;99.90;;;;;;5074237;28;19920;-76
2021/05/10 03:38:38;;;;;;;;;;;16.90;99.90;;;;;;5074054;28;19904;-78
2021/05/10 03:41:03;;;;;;;;;;;17.00;99.90;;;;;;5072667;28;19904;-77
2021/05/10 03:43:29;;;;;;;;;;;17.00;99.90;;;;;;5074244;28;19904;-76
2021/05/10 03:45:54;;;;;;;;;;;17.00;99.90;;;;;;5074059;28;19904;-79
2021/05/10 03:48:19;;;;;;;;;;;17.20;99.90;;;;;;5073708;28;19905;-77
2021/05/10 03:50:45;;;;;;;;;;;17.30;99.90;;;;;;5074183;28;19904;-78
2021/05/10 03:53:10;;;;;;;;;;;17.30;99.90;;;;;;5074081;28;19904;-77
2021/05/10 03:55:37;;;;;;;;;;;17.30;99.90;;;;;;5072489;28;20552;-79
2021/05/10 03:58:03;;;;;;;;;;;17.30;99.90;;;;;;5072521;28;19905;-77
2021/05/10 04:00:28;;;;;;;;;;;17.20;99.90;;;;;;5073269;28;20275;-79
2021/05/10 04:02:54;;;;;;;;;;;17.10;99.90;;;;;;5073094;28;19919;-76
2021/05/10 04:13:35;;;;;;;;;;;16.70;99.90;;;;;;5074364;28;19911;-78
2021/05/10 04:16:01;;;;;;;;;;;16.60;99.90;;;;;;5074032;28;20384;-79
2021/05/10 04:18:27;;;;;;;;;;;16.60;99.90;;;;;;5072468;28;20001;-79
2021/05/10 04:20:52;;;;;;;;;;;16.60;99.90;;;;;;5072635;28;19993;-79
2021/05/10 04:23:18;;;;;;;;;;;16.50;99.90;;;;;;5072973;28;19904;-77
2021/05/10 04:25:47;;;;;;;;;;;16.40;99.90;;;;;;5072770;28;19970;-80
2021/05/10 04:28:13;;;;;;;;;;;16.40;99.90;;;;;;5081183;28;19915;-78
2021/05/10 04:30:39;;;;;;;;;;;16.40;99.90;;;;;;5081933;28;19908;-80
2021/05/10 04:33:05;;;;;;;;;;;16.30;99.90;;;;;;5072654;28;20333;-80
2021/05/10 04:35:32;;;;;;;;;;;16.30;99.90;;;;;;5072643;28;19912;-80
2021/05/10 04:37:57;;;;;;;;;;;16.20;99.90;;;;;;5073191;28;19905;-77
2021/05/10 04:40:23;;;;;;;;;;;16.20;99.90;;;;;;5073527;28;20011;-79
2021/05/10 04:42:48;;;;;;;;;;;16.40;99.90;;;;;;5074507;28;19904;-78
2021/05/10 04:45:14;;;;;;;;;;;16.40;99.90;;;;;;5074373;28;19905;-79
2021/05/10 04:47:41;;;;;;;;;;;16.60;99.90;;;;;;5072602;28;19942;-78
2021/05/10 04:50:09;;;;;;;;;;;16.60;99.90;;;;;;5071542;28;19943;-76
2021/05/10 04:52:35;;;;;;;;;;;16.70;99.90;;;;;;5075461;28;19915;-77
2021/05/10 04:55:00;;;;;;;;;;;16.70;99.90;;;;;;5092130;28;20147;-77
2021/05/10 04:57:25;;;;;;;;;;;16.70;99.90;;;;;;5092113;28;19904;-77
2021/05/10 04:59:51;;;;;;;;;;;16.80;99.90;;;;;;5092142;28;19911;-78
2021/05/10 05:02:16;;;;;;;;;;;16.90;99.90;;;;;;5092243;28;20438;-78
2021/05/10 05:04:42;;;;;;;;;;;17.00;99.90;;;;;;5090738;28;19915;-78
2021/05/10 05:07:07;;;;;;;;;;;17.10;99.90;;;;;;5092233;28;19911;-78
2021/05/10 05:09:33;;;;;;;;;;;17.20;99.90;;;;;;5089928;28;20017;-78
2021/05/10 05:11:58;;;;;;;;;;;17.30;99.90;;;;;;5070608;28;20003;-77
2021/05/10 05:14:23;;;;;;;;;;;17.30;99.90;;;;;;5071965;28;20205;-77
2021/05/10 05:16:49;;;;;;;;;;;17.40;99.90;;;;;;5070684;28;19908;-78
2021/05/10 05:19:14;;;;;;;;;;;17.50;99.90;;;;;;5074303;28;20390;-77
2021/05/10 05:21:40;;;;;;;;;;;17.50;99.90;;;;;;5075599;28;19904;-78
2021/05/10 05:24:06;;;;;;;;;;;17.60;99.90;;;;;;5075693;28;19999;-78
2021/05/10 05:26:31;;;;;;;;;;;17.70;99.90;;;;;;5074423;28;19911;-77
2021/05/10 05:28:56;;;;;;;;;;;17.70;99.90;;;;;;5074270;28;19905;-78
2021/05/10 05:31:22;;;;;;;;;;;17.70;99.90;;;;;;5074415;28;20428;-77
2021/05/10 05:33:48;;;;;;;;;;;17.70;99.90;;;;;;5075415;28;19915;-77
2021/05/10 05:36:13;;;;;;;;;;;17.80;99.90;;;;;;5075960;28;19956;-77
2021/05/10 05:38:40;;;;;;;;;;;17.80;99.90;;;;;;5075634;28;19911;-78
2021/05/10 05:41:06;;;;;;;;;;;17.90;99.90;;;;;;5074141;28;19962;-78
2021/05/10 05:43:31;;;;;;;;;;;17.90;99.90;;;;;;5074763;28;19904;-78
2021/05/10 05:45:57;;;;;;;;;;;18.20;99.90;;;;;;5074509;28;20410;-78
2021/05/10 05:48:22;;;;;;;;;;;18.40;99.90;;;;;;5094458;28;20435;-78
2021/05/10 05:50:48;;;;;;;;;;;18.60;99.90;;;;;;5094473;28;19908;-77
2021/05/10 05:53:14;;;;;;;;;;;18.70;99.90;;;;;;5094705;28;20413;-78
2021/05/10 05:55:40;;;;;;;;;;;18.80;99.90;;;;;;5094339;28;19908;-77
2021/05/10 05:58:06;;;;;;;;;;;18.90;99.90;;;;;;5093914;28;19904;-78
2021/05/10 06:00:32;;;;;;;;;;;18.90;99.90;;;;;;5093929;28;20380;-78
2021/05/10 06:02:57;;;;;;;;;;;19.00;99.90;;;;;;5095011;28;19904;-77
2021/05/10 06:05:23;;;;;;;;;;;18.90;99.90;;;;;;5095302;28;19947;-77
2021/05/10 06:07:49;;;;;;;;;;;19.10;99.90;;;;;;5093681;28;19947;-77
2021/05/10 06:10:18;;;;;;;;;;;19.20;99.90;;;;;;5094900;28;19910;-77
2021/05/10 06:12:46;;;;;;;;;;;19.40;99.90;;;;;;5093703;28;19946;-77
2021/05/10 06:15:12;;;;;;;;;;;19.20;99.90;;;;;;5095005;28;20007;-77
2021/05/10 06:17:38;;;;;;;;;;;19.00;99.90;;;;;;5096002;28;19935;-79
2021/05/10 06:20:03;;;;;;;;;;;18.90;99.90;;;;;;5095238;28;20449;-76
2021/05/10 06:22:29;;;;;;;;;;;18.80;99.90;;;;;;5081752;28;19908;-77
2021/05/10 06:24:54;;;;;;;;;;;18.70;99.90;;;;;;5089581;28;19995;-77
2021/05/10 06:27:20;;;;;;;;;;;18.60;99.90;;;;;;5079305;28;20347;-76
2021/05/10 06:29:45;;;;;;;;;;;18.50;99.90;;;;;;5074316;28;19995;-77
2021/05/10 06:32:11;;;;;;;;;;;18.60;99.90;;;;;;5075237;28;19904;-76
2021/05/10 06:34:36;;;;;;;;;;;18.60;99.90;;;;;;5073604;28;19912;-77
2021/05/10 06:37:02;;;;;;;;;;;18.60;99.90;;;;;;5075170;28;20037;-79
2021/05/10 06:39:27;;;;;;;;;;;18.70;99.90;;;;;;5074045;28;19911;-80
2021/05/10 06:41:53;;;;;;;;;;;18.80;99.90;;;;;;5073784;28;19909;-79
2021/05/10 06:44:18;;;;;;;;;;;19.00;99.90;;;;;;5074091;28;19995;-78
2021/05/10 06:46:44;;;;;;;;;;;19.20;99.90;;;;;;5074425;28;19912;-77
2021/05/10 06:49:09;;;;;;;;;;;19.50;99.90;;;;;;5093673;28;19974;-78
2021/05/10 06:51:34;;;;;;;;;;;19.90;99.90;;;;;;5094803;28;19904;-76
2021/05/10 06:54:00;;;;;;;;;;;20.30;99.90;;;;;;5093256;28;19904;-77
2021/05/10 06:56:25;;;;;;;;;;;20.30;99.90;;;;;;5095077;28;20003;-78
2021/05/10 06:58:51;;;;;;;;;;;20.30;99.90;;;;;;5094049;28;20351;-79
2021/05/10 07:01:16;;;;;;;;;;;20.10;99.90;;;;;;5095120;28;19940;-79
2021/05/10 07:03:42;;;;;;;;;;;20.00;99.90;;;;;;5094507;28;20321;-75
2021/05/10 07:06:07;;;;;;;;;;;20.00;99.90;;;;;;5094586;28;20331;-76
2021/05/10 07:08:33;;;;;;;;;;;20.00;99.90;;;;;;5094980;28;19908;-79
2021/05/10 07:10:58;;;;;;;;;;;20.30;99.90;;;;;;5093787;28;19939;-78
2021/05/10 07:13:24;;;;;;;;;;;20.60;99.90;;;;;;5094471;28;19904;-76
2021/05/10 07:15:49;;;;;;;;;;;21.20;99.90;;;;;;5094589;28;19919;-77
2021/05/10 07:18:15;;;;;;;1.65;0.80;;;22.20;99.90;;;;;;5093428;28;19995;-78
2021/05/10 07:20:43;;;;;;;1.55;0.60;;;23.60;99.90;;;;;;5095488;28;20073;-79
2021/05/10 07:23:09;;;;;;;;;;;24.00;99.90;;;;;;5095367;28;20180;-79
2021/05/10 07:25:41;;;;;;;2.00;0.90;;;23.40;99.90;;;;;;5094218;28;19903;-79
2021/05/10 07:28:07;;;;;;;;;;;22.50;99.90;;;;;;5093927;28;20051;-78
2021/05/10 07:30:33;;;;;;;0.73;0.70;;;22.70;99.90;;;;;;5094047;28;19904;-79
2021/05/10 07:32:58;;;;;;;1.98;0.77;;;23.60;99.90;;;;;;5092453;28;20020;-78
2021/05/10 07:35:24;;;;;;;2.92;0.70;;;23.70;99.90;;;;;;5074056;28;20106;-79
2021/05/10 07:37:49;;;;;;;;;;;23.30;99.90;;;;;;5076166;28;20314;-79
2021/05/10 07:40:21;;;;;;;0.52;0.35;;;23.90;99.90;;;;;;5075697;28;19909;-78
2021/05/10 07:42:47;;;;;;;0.40;0.40;;;24.60;99.90;;;;;;5073934;28;20078;-77
2021/05/10 07:45:12;;;;;;;1.63;1.17;;;24.00;99.90;;;;;;5072510;28;20028;-78
2021/05/10 07:47:38;;;;;;;0.38;0.38;;;23.60;99.90;;;;;;5072258;28;20066;-77
2021/05/10 07:50:04;;;;;;;2.10;0.30;;;23.90;99.90;;;;;;5073404;28;20502;-77
2021/05/10 07:52:30;;;;;;;0.70;0.52;;;23.90;99.90;;;;;;5072523;28;20052;-76
2021/05/10 07:54:55;;;;;;;1.92;0.90;;;24.00;99.90;;;;;;5073196;28;20114;-81
2021/05/10 07:57:21;;;;;;;;;;;23.90;99.90;;;;;;5071536;28;20161;-76
2021/05/10 07:59:48;;;;;;;;;;;23.70;99.90;;;;;;5072208;28;19908;-77
2021/05/10 08:02:14;;;;;;;;;;;23.30;99.90;;;;;;5091878;28;20006;-77
2021/05/10 08:04:41;;;;;;;;;;;23.20;99.90;;;;;;5091936;28;19947;-76
2021/05/10 08:07:07;;;;;;;;;;;23.30;99.90;;;;;;5092614;28;19915;-76
2021/05/10 08:09:33;;;;;;;0.30;0.30;;;23.60;99.90;;;;;;5093321;28;19912;-78
2021/05/10 08:11:58;;;;;;;0.40;0.40;;;24.00;99.90;;;;;;5082234;28;20074;-76
2021/05/10 08:14:24;;;;;;;;;;;23.30;99.90;;;;;;5091995;28;19904;-78
2021/05/10 08:16:50;;;;;;;;;;;22.50;99.90;;;;;;5091845;28;19909;-75
2021/05/10 08:19:16;;;;;;;;;;;21.90;99.90;;;;;;5070889;28;19926;-78
2021/05/10 08:21:41;;;;;;;;;;;21.50;99.90;;;;;;5074003;28;19912;-77
2021/05/10 08:24:07;;;;;;;;;;;21.20;99.90;;;;;;5071007;28;20313;-76
2021/05/10 08:26:33;;;;;;;;;;;21.00;99.90;;;;;;5071231;28;19908;-79
2021/05/10 08:28:58;;;;;;;;;;;20.70;99.90;;;;;;5070622;28;20025;-77
2021/05/10 08:31:24;;;;;;;;;;;20.80;99.90;;;;;;5072849;28;19912;-79
2021/05/10 08:33:50;;;;;;;;;;;21.20;99.90;;;;;;5072612;28;19904;-83
2021/05/10 08:36:17;;;;;;;;;;;21.80;99.90;;;;;;5071050;28;20309;-78
2021/05/10 08:38:43;;;;;;;;;;;23.40;99.90;;;;;;5070666;28;20325;-76
2021/05/10 08:41:09;;;;;;;1.40;0.20;;;23.80;99.90;;;;;;5072477;28;19915;-77
2021/05/10 08:43:34;;;;;;;0.47;0.47;;;23.20;99.90;;;;;;5070577;28;20085;-78
2021/05/10 08:46:01;;;;;;;0.20;0.20;;;22.90;99.90;;;;;;5071776;28;20036;-76
2021/05/10 08:48:26;;;;;;;0.50;0.50;;;22.50;99.90;;;;;;5086860;28;20013;-77
2021/05/10 08:50:53;;;;;;;2.33;0.47;;;22.40;99.90;;;;;;5070312;28;20046;-76
2021/05/10 08:53:51;;;;;;;;;;;22.10;99.90;;;;;;5075971;28;20021;-76
2021/05/10 08:56:17;;;;;;;;;;;21.70;99.90;;;;;;5054815;28;19908;-76
2021/05/10 08:58:45;;;;;;;;;;;21.30;99.90;;;;;;5095089;28;20377;-76
2021/05/10 09:01:12;;;;;;;;;;;21.10;99.90;;;;;;5096744;28;19957;-77
2021/05/10 09:03:43;;;;;;;;;;;20.80;99.90;;;;;;5095258;28;19911;-78
2021/05/10 09:06:12;;;;;;;;;;;20.60;99.90;;;;;;5089331;28;20325;-77
2021/05/10 09:08:42;;;;;;;;;;;20.50;99.90;;;;;;5075171;28;19912;-78
2021/05/10 09:11:12;;;;;;;;;;;20.60;99.90;;;;;;5076368;28;19983;-77
2021/05/10 09:13:39;;;;;;;;;;;20.80;99.90;;;;;;5074976;28;19904;-77
2021/05/10 09:16:04;;;;;;;;;;;21.00;99.90;;;;;;5076233;28;19912;-77
2021/05/10 09:18:30;;;;;;;;;;;21.10;99.90;;;;;;5074557;28;19953;-78
2021/05/10 09:21:08;;;;;;;;;;;21.50;99.90;;;;;;5075077;28;19911;-77
2021/05/10 09:23:34;;;;;;;;;;;22.20;99.90;;;;;;5074998;28;19912;-76
2021/05/10 09:25:59;;;;;;;;;;;22.60;99.90;;;;;;5077208;28;19905;-78
2021/05/10 09:28:25;;;;;;;;;;;23.20;99.90;;;;;;5075284;28;19904;-79
2021/05/10 09:30:51;;;;;;;;;;;24.00;99.90;;;;;;5076196;28;19905;-79
2021/05/10 09:33:25;;;;;;;;;;;24.20;99.90;;;;;;5077757;28;19955;-78
2021/05/10 09:35:51;;;;;;;;;;;24.80;99.30;;;;;;5075424;28;20001;-77
2021/05/10 09:38:21;;;;;;;;;;;24.50;99.00;;;;;;5074628;28;19904;-78
2021/05/10 09:40:48;;;;;;;;;;;24.40;99.90;;;;;;5075449;28;19904;-78
2021/05/10 09:43:14;;;;;;;;;;;24.50;98.40;;;;;;5075692;28;19908;-77
2021/05/10 09:45:43;;;;;;;;;;;24.60;98.70;;;;;;5076367;28;19911;-78
2021/05/10 09:48:08;;;;;;;;;;;24.50;97.50;;;;;;5075267;28;19904;-77
2021/05/10 09:50:35;;;;;;;;;;;24.00;98.60;;;;;;5074875;28;20018;-79
2021/05/10 09:53:01;;;;;;;;;;;23.50;99.40;;;;;;5075622;28;19904;-75
2021/05/10 09:55:55;;;;;;;;;;;23.00;99.90;;;;;;5074640;28;19908;-79
2021/05/10 09:58:21;;;;;;;;;;;22.50;99.90;;;;;;5075372;28;19946;-77
2021/05/10 10:00:52;;;;;;;;;;;22.30;99.90;;;;;;5076544;28;19904;-78
2021/05/10 10:03:37;;;;;;;;;;;22.20;99.90;;;;;;5076177;28;19958;-78
2021/05/10 10:06:04;;;;;;;;;;;22.10;99.90;;;;;;5077780;28;19908;-79
2021/05/10 10:08:30;;;;;;;;;;;21.70;99.90;;;;;;5076542;28;19905;-79
2021/05/10 10:10:56;;;;;;;;;;;21.30;99.90;;;;;;5078238;28;20332;-77
2021/05/10 10:13:22;;;;;;;;;;;21.00;99.90;;;;;;5076909;28;19911;-78
2021/05/10 10:15:47;;;;;;;;;;;20.90;99.90;;;;;;5076475;28;19909;-80
2021/05/10 10:18:18;;;;;;;;;;;20.90;99.90;;;;;;5075169;28;20274;-79
2021/05/10 10:20:44;;;;;;;;;;;21.10;99.90;;;;;;5075860;28;19961;-81
2021/05/10 10:23:11;;;;;;;;;;;21.50;99.90;;;;;;5077250;28;19915;-80
2021/05/10 10:25:36;;;;;;;;;;;21.90;99.90;;;;;;5077008;28;20355;-80
2021/05/10 10:28:04;;;;;;;;;;;21.90;99.90;;;;;;5080069;28;19904;-79
2021/05/10 10:30:31;;;;;;;;;;;22.10;99.90;;;;;;5085782;28;19904;-79
2021/05/10 10:32:59;;;;;;;;;;;22.20;99.90;;;;;;5085258;28;19987;-79
2021/05/10 10:35:25;;;;;;;;;;;22.50;99.90;;;;;;5083357;28;19911;-78
2021/05/10 10:37:51;;;;;;;;;;;22.70;99.90;;;;;;5086875;28;19908;-77
2021/05/10 10:40:18;;;;;;;;;;;23.00;99.90;;;;;;5084076;28;20378;-78
2021/05/10 10:42:43;;;;;;;;;;;23.20;99.90;;;;;;5082219;28;19927;-78
2021/05/10 10:45:11;;;;;;;;;;;23.30;99.90;;;;;;5083641;28;19915;-77
2021/05/10 10:47:43;;;;;;;;;;;23.60;99.90;;;;;;5082743;28;19904;-77
2021/05/10 10:50:13;;;;;;;;;;;23.70;99.90;;;;;;5084600;28;20045;-76
2021/05/10 10:52:50;;;;;;;;;;;23.90;99.90;;;;;;5084525;28;19995;-76
2021/05/10 10:55:17;;;;;;;;;;;23.80;99.90;;;;;;5083622;28;20002;-76
2021/05/10 10:57:42;;;;;;;;;;;23.70;99.90;;;;;;5081816;28;19915;-77
2021/05/10 11:00:08;;;;;;;;;;;23.10;99.90;;;;;;5081449;28;19905;-77
2021/05/10 11:02:42;;;;;;;;;;;22.70;99.90;;;;;;5081627;28;19904;-78
2021/05/10 11:05:08;;;;;;;;;;;22.40;99.90;;;;;;5082356;28;19904;-77
2021/05/10 11:08:02;;;;;;;;;;;22.20;99.90;;;;;;5083371;28;19915;-79
2021/05/10 11:10:48;;;;;;;;;;;21.90;99.90;;;;;;5090159;28;19904;-77
2021/05/10 11:13:25;;;;;;;;;;;21.70;99.90;;;;;;5072899;28;19908;-79
2021/05/10 11:15:51;;;;;;;;;;;21.30;99.90;;;;;;5072797;28;19912;-76
2021/05/10 11:18:40;;;;;;;;;;;21.10;99.90;;;;;;5072498;28;19911;-76
2021/05/10 11:21:07;;;;;;;;;;;21.00;99.90;;;;;;5075801;28;20386;-77
2021/05/10 11:23:36;;;;;;;;;;;21.10;99.90;;;;;;5093282;28;19904;-77
2021/05/10 11:26:03;;;;;;;;;;;21.20;99.90;;;;;;5085745;28;19948;-77
2021/05/10 11:28:29;;;;;;;;;;;21.10;99.90;;;;;;5074423;28;19957;-76
2021/05/10 11:30:55;;;;;;;;;;;20.90;99.90;;;;;;5072757;28;19931;-77
2021/05/10 11:33:40;;;;;;;;;;;20.60;99.90;;;;;;5072663;28;19905;-78
2021/05/10 11:36:05;;;;;;;;;;;20.50;99.90;;;;;;5073859;28;19912;-77
2021/05/10 11:38:31;;;;;;;;;;;20.30;99.90;;;;;;5084934;28;19904;-77
2021/05/10 11:40:56;;;;;;;;;;;20.30;99.90;;;;;;5092697;28;20333;-77
2021/05/10 11:43:22;;;;;;;;;;;20.10;99.90;;;;;;5094208;28;19911;-77
2021/05/10 11:45:47;;;;;;;;;;;20.10;99.90;;;;;;5093951;28;20002;-77
2021/05/10 11:48:15;;;;;;;;;;;20.10;99.90;;;;;;5092493;28;19951;-78
2021/05/10 11:50:45;;;;;;;;;;;20.20;99.90;;;;;;5093924;28;19904;-77
2021/05/10 11:53:15;;;;;;;;;;;20.30;99.90;;;;;;5093899;28;19973;-77
2021/05/10 11:55:58;;;;;;;;;;;20.30;99.90;;;;;;5092324;28;20347;-78
2021/05/10 11:58:41;;;;;;;;;;;20.20;99.90;;;;;;5093434;28;19904;-78
2021/05/10 12:01:07;;;;;;;;;;;20.10;99.90;;;;;;5092121;28;19944;-76
2021/05/10 12:03:32;;;;;;;;;;;20.00;99.90;;;;;;5092166;28;19908;-76
2021/05/10 12:05:58;;;;;;;;;;;20.00;99.90;;;;;;5091995;28;19995;-76
2021/05/10 12:08:36;;;;;;;;;;;20.00;99.90;;;;;;5091987;28;20385;-77
2021/05/10 12:11:02;;;;;;;;;;;20.00;99.90;;;;;;5092117;28;19905;-79
2021/05/10 12:13:27;;;;;;;;;;;19.90;99.90;;;;;;5092760;28;19904;-77
2021/05/10 12:16:06;;;;;;;;;;;19.80;99.90;;;;;;5076337;28;19916;-78
2021/05/10 12:18:31;;;;;;;;;;;19.70;99.90;;;;;;5073125;28;19921;-78
2021/05/10 12:20:57;;;;;;;;;;;19.70;99.90;;;;;;5074887;28;20386;-78
2021/05/10 12:23:22;;;;;;;;;;;19.70;99.90;;;;;;5072831;28;20259;-78
2021/05/10 12:25:48;;;;;;;;;;;19.60;99.90;;;;;;5074227;28;19908;-76
2021/05/10 12:28:19;;;;;;;;;;;19.60;99.90;;;;;;5072404;28;20378;-78
2021/05/10 12:30:45;;;;;;;;;;;19.60;99.90;;;;;;5073249;28;19904;-77
2021/05/10 12:33:12;;;;;;;;;;;19.40;99.90;;;;;;5072259;28;19927;-78
2021/05/10 12:35:39;;;;;;;;;;;19.40;99.90;;;;;;5072951;28;20271;-78
2021/05/10 12:38:05;;;;;;;;;;;19.20;99.90;;;;;;5071226;28;21311;-77
2021/05/10 12:40:38;;;;;;;;;;;18.90;99.90;;;;;;5072473;28;20339;-77
2021/05/10 12:43:05;;;;;;;;;;;18.90;99.90;;;;;;5074526;28;19908;-79
2021/05/10 12:45:30;;;;;;;;;;;18.80;99.90;;;;;;5073911;28;20455;-77
2021/05/10 12:47:57;;;;;;;;;;;18.70;99.90;;;;;;5074594;28;19936;-78
2021/05/10 12:50:37;;;;;;;;;;;18.70;99.90;;;;;;5072171;28;20379;-77
2021/05/10 12:53:03;;;;;;;;;;;18.50;99.90;;;;;;5072232;28;19966;-79
2021/05/10 12:55:30;;;;;;;;;;;18.50;99.90;;;;;;5073177;28;19919;-80
2021/05/10 12:57:55;;;;;;;;;;;18.40;99.90;;;;;;5074082;28;20021;-80
2021/05/10 13:00:31;;;;;;;;;;;18.50;99.90;;;;;;5073720;28;19955;-77
2021/05/10 13:02:59;;;;;;;;;;;18.50;99.90;;;;;;5073916;28;19912;-80
2021/05/10 13:05:33;;;;;;;;;;;18.70;99.90;;;;;;5082723;28;19909;-78
2021/05/10 13:07:59;;;;;;;;;;;18.90;99.90;;;;;;5084896;28;20393;-77
2021/05/10 13:10:24;;;;;;;;;;;19.00;99.90;;;;;;5086109;28;19999;-78
2021/05/10 13:12:50;;;;;;;;;;;18.70;99.90;;;;;;5082863;28;20012;-78
2021/05/10 13:15:27;;;;;;;;;;;18.50;99.90;;;;;;5077221;28;19935;-78
2021/05/10 13:18:03;;;;;;;;;;;18.40;99.90;;;;;;5077829;28;19908;-77
2021/05/10 13:27:07;;;;;;;;;;;18.80;99.90;;;;;;5081685;28;19962;-79
2021/05/10 13:31:59;;;;;;;0.10;0.10;;;18.50;99.90;;;;;;5090107;28;20035;-77
2021/05/10 13:35:04;;;;;;;;;;;18.60;99.90;;;;;;5091807;28;20103;-78
2021/05/10 13:37:30;;;;;;;;;;;18.70;99.90;;;;;;5085639;28;19908;-78
2021/05/10 13:39:55;;;;;;;;;;;18.60;99.90;;;;;;5078742;28;19967;-78
2021/05/10 13:42:27;;;;;;;;;;;18.40;99.90;;;;;;5101463;28;19904;-78
2021/05/10 13:44:53;;;;;;;;;;;18.30;99.90;;;;;;5100237;28;19908;-77
2021/05/10 13:47:18;;;;;;;;;;;18.20;99.90;;;;;;5098256;28;20011;-78
2021/05/10 13:49:44;;;;;;;;;;;18.20;99.90;;;;;;5098013;28;19908;-78
2021/05/10 13:52:10;;;;;;;;;;;18.40;99.90;;;;;;5099170;28;19911;-78
2021/05/10 13:54:35;;;;;;;;;;;18.40;99.90;;;;;;5080002;28;19905;-76
2021/05/10 13:57:01;;;;;;;;;;;18.40;99.90;;;;;;5076710;28;19908;-77
2021/05/10 13:59:29;;;;;;;;;;;18.40;99.90;;;;;;5077294;28;19912;-77
2021/05/10 14:01:54;;;;;;;;;;;18.30;99.90;;;;;;5078183;28;19911;-78
2021/05/10 14:04:21;;;;;;;;;;;18.40;99.90;;;;;;5078558;28;19904;-77
2021/05/10 14:06:46;;;;;;;;;;;18.50;99.90;;;;;;5077071;28;20255;-78
2021/05/10 14:09:12;;;;;;;;;;;18.40;99.90;;;;;;5076240;28;19905;-78
2021/05/10 14:11:38;;;;;;;;;;;18.40;99.90;;;;;;5078446;28;19904;-77
2021/05/10 14:14:04;;;;;;;;;;;18.40;99.90;;;;;;5077512;28;19994;-77
2021/05/10 14:16:29;;;;;;;;;;;18.30;99.90;;;;;;5079300;28;20260;-77
2021/05/10 14:19:08;;;;;;;;;;;18.10;99.90;;;;;;5080469;28;19905;-78
2021/05/10 14:24:18;;;;;;;;;;;18.30;99.90;;;;;;5080532;28;19911;-77
2021/05/10 14:26:44;;;;;;;;;;;18.20;99.90;;;;;;5078962;28;20287;-77
2021/05/10 14:29:10;;;;;;;;;;;18.20;99.90;;;;;;5079009;28;20382;-77
2021/05/10 14:31:39;;;;;;;;;;;18.00;99.90;;;;;;5080014;28;19911;-78